createdAt,value
2018-11-14T00:00:14.838Z,45.97
2018-11-14T00:02:43.293Z,46.07
2018-11-14T00:05:10.751Z,46.28
2018-11-14T00:07:38.335Z,46.09
2018-11-14T00:10:06.634Z,46.02
2018-11-14T00:12:34.063Z,46.15
2018-11-14T00:15:04.074Z,46.24
2018-11-14T00:17:31.481Z,45.95
2018-11-14T00:19:58.970Z,46.01
2018-11-14T00:22:26.487Z,46.38
2018-11-14T00:24:54.135Z,46.78
2018-11-14T00:27:22.213Z,47.14
2018-11-14T00:29:49.638Z,46.70
2018-11-14T00:32:17.181Z,46.74
2018-11-14T00:34:44.643Z,46.69
2018-11-14T00:37:12.126Z,46.47
2018-11-14T00:39:41.749Z,46.01
2018-11-14T00:42:09.330Z,46.53
2018-11-14T00:44:36.857Z,46.26
2018-11-14T00:47:04.405Z,46.57
2018-11-14T00:49:32.003Z,46.66
2018-11-14T00:52:00.381Z,47.28
2018-11-14T00:54:27.938Z,47.44
2018-11-14T00:56:55.507Z,47.90
2018-11-14T00:59:23.031Z,47.44
2018-11-14T01:01:50.555Z,47.93
2018-11-14T01:04:20.483Z,48.07
2018-11-14T01:06:48.979Z,47.42
2018-11-14T01:09:16.599Z,47.70
2018-11-14T01:11:44.215Z,47.65
2018-11-14T01:14:11.694Z,47.22
2018-11-14T01:16:40.142Z,46.94
2018-11-14T01:19:09.008Z,46.65
2018-11-14T01:21:36.681Z,47.17
2018-11-14T01:24:04.185Z,47.08
2018-11-14T01:26:31.743Z,47.04
2018-11-14T01:29:01.222Z,46.53
2018-11-14T01:31:28.696Z,46.99
2018-11-14T01:33:56.228Z,47.12
2018-11-14T01:36:23.805Z,47.80
2018-11-14T01:38:51.294Z,48.15
2018-11-14T01:41:19.730Z,47.69
2018-11-14T01:43:47.559Z,47.86
2018-11-14T01:46:14.989Z,47.21
2018-11-14T01:48:42.453Z,48.10
2018-11-14T01:51:09.986Z,47.68
2018-11-14T02:00:25.001Z,50.33
2018-11-14T02:02:52.568Z,49.67
2018-11-14T02:05:20.970Z,49.30
2018-11-14T02:07:48.753Z,48.87
2018-11-14T02:10:18.203Z,48.33
2018-11-14T02:12:45.961Z,48.84
2018-11-14T02:15:16.823Z,48.32
2018-11-14T02:17:46.439Z,48.42
2018-11-14T02:20:14.055Z,48.82
2018-11-14T02:22:42.708Z,49.06
2018-11-14T02:25:11.041Z,48.89
2018-11-14T02:27:38.557Z,49.10
2018-11-14T02:30:09.600Z,48.08
2018-11-14T02:32:37.025Z,48.56
2018-11-14T02:35:05.066Z,49.03
2018-11-14T02:37:32.632Z,47.95
2018-11-14T02:40:00.045Z,47.93
2018-11-14T02:42:29.570Z,47.88
2018-11-14T02:44:57.424Z,48.00
2018-11-14T02:47:24.844Z,47.94
2018-11-14T02:49:52.438Z,47.96
2018-11-14T02:52:19.929Z,47.60
2018-11-14T02:54:48.531Z,48.04
2018-11-14T02:57:15.955Z,47.78
2018-11-14T02:59:44.386Z,48.15
2018-11-14T03:02:11.877Z,48.48
2018-11-14T03:04:39.389Z,47.82
2018-11-14T03:07:09.242Z,48.57
2018-11-14T03:09:36.700Z,48.21
2018-11-14T03:12:04.424Z,47.97
2018-11-14T03:14:32.075Z,48.07
2018-11-14T03:16:59.527Z,47.85
2018-11-14T03:19:27.946Z,48.49
2018-11-14T03:21:55.412Z,48.08
2018-11-14T03:24:22.830Z,48.51
2018-11-14T03:26:50.294Z,48.09
2018-11-14T03:29:17.873Z,47.85
2018-11-14T03:31:47.085Z,47.97
2018-11-14T03:34:14.686Z,48.68
2018-11-14T03:36:43.213Z,48.49
2018-11-14T03:39:10.717Z,48.94
2018-11-14T03:41:38.172Z,48.52
2018-11-14T03:44:06.734Z,48.65
2018-11-14T03:46:34.343Z,48.67
2018-11-14T03:49:01.917Z,49.03
2018-11-14T03:51:29.501Z,49.11
2018-11-14T03:53:56.971Z,49.50
2018-11-14T03:56:25.758Z,49.93
2018-11-14T03:58:54.645Z,51.11
2018-11-14T04:01:22.102Z,50.28
2018-11-14T04:03:49.567Z,50.01
2018-11-14T04:06:17.108Z,50.65
2018-11-14T04:08:45.657Z,52.16
2018-11-14T04:11:13.267Z,51.02
2018-11-14T04:13:40.835Z,50.77
2018-11-14T04:16:08.419Z,50.92
2018-11-14T04:18:35.903Z,50.44
2018-11-14T04:21:04.996Z,50.16
2018-11-14T04:23:32.457Z,49.53
2018-11-14T04:25:59.907Z,50.08
2018-11-14T04:28:27.427Z,49.59
2018-11-14T04:30:54.979Z,48.98
2018-11-14T04:33:23.402Z,49.09
2018-11-14T04:35:52.201Z,49.89
2018-11-14T04:38:19.642Z,50.86
2018-11-14T04:40:47.220Z,49.97
2018-11-14T04:43:14.685Z,49.87
2018-11-14T04:45:43.698Z,49.98
2018-11-14T04:48:11.568Z,49.78
2018-11-14T04:50:39.009Z,49.66
2018-11-14T04:53:07.390Z,49.02
2018-11-14T04:55:34.870Z,49.14
2018-11-14T04:58:04.301Z,49.13
2018-11-14T05:00:31.822Z,49.88
2018-11-14T05:02:59.260Z,50.01
2018-11-14T05:05:26.831Z,49.24
2018-11-14T05:07:54.276Z,49.54
2018-11-14T05:10:24.924Z,49.16
2018-11-14T05:12:52.704Z,49.57
2018-11-14T05:15:21.426Z,49.32
2018-11-14T05:17:49.496Z,49.30
2018-11-14T05:20:18.085Z,48.85
2018-11-14T05:22:47.694Z,49.25
2018-11-14T05:25:15.255Z,48.67
2018-11-14T05:27:42.960Z,48.43
2018-11-14T05:30:12.733Z,48.78
2018-11-14T05:32:40.600Z,48.79
2018-11-14T05:35:11.892Z,48.98
2018-11-14T05:37:39.920Z,49.56
2018-11-14T05:40:11.824Z,50.01
2018-11-14T05:42:39.954Z,49.24
2018-11-14T05:45:11.698Z,49.93
2018-11-14T05:47:39.790Z,49.38
2018-11-14T05:50:11.158Z,49.53
2018-11-14T05:52:38.805Z,50.12
2018-11-14T05:55:06.566Z,49.70
2018-11-14T05:57:36.077Z,49.70
2018-11-14T06:00:05.293Z,50.88
2018-11-14T06:02:32.886Z,50.14
2018-11-14T06:05:00.473Z,50.16
2018-11-14T06:07:27.919Z,50.03
2018-11-14T06:09:56.465Z,49.51
2018-11-14T06:12:24.209Z,49.74
2018-11-14T06:14:51.711Z,50.07
2018-11-14T06:17:19.164Z,50.75
2018-11-14T06:19:46.690Z,49.99
2018-11-14T06:22:16.066Z,50.71
2018-11-14T06:24:43.553Z,49.52
2018-11-14T06:27:11.162Z,50.14
2018-11-14T06:29:38.977Z,50.01
2018-11-14T06:32:06.652Z,50.18
2018-11-14T06:34:36.156Z,50.77
2018-11-14T06:37:03.675Z,50.72
2018-11-14T06:39:31.226Z,50.06
2018-11-14T06:41:58.811Z,49.88
2018-11-14T06:44:26.290Z,50.24
2018-11-14T06:46:55.338Z,49.62
2018-11-14T06:49:22.923Z,49.39
2018-11-14T06:51:50.760Z,49.21
2018-11-14T06:54:18.283Z,49.78
2018-11-14T06:56:45.889Z,50.29
2018-11-14T06:59:14.340Z,49.94
2018-11-14T07:01:41.817Z,49.76
2018-11-14T07:04:09.471Z,49.70
2018-11-14T07:06:36.930Z,50.08
2018-11-14T07:09:07.869Z,50.19
2018-11-14T07:11:37.275Z,50.45
2018-11-14T07:14:04.927Z,50.72
2018-11-14T07:16:32.394Z,51.44
2018-11-14T07:18:59.984Z,50.82
2018-11-14T07:21:27.464Z,50.82
2018-11-14T07:23:56.133Z,49.91
2018-11-14T07:26:24.764Z,49.84
2018-11-14T07:28:52.259Z,50.29
2018-11-14T07:31:19.722Z,49.70
2018-11-14T07:33:47.394Z,49.81
2018-11-14T07:36:16.973Z,50.60
2018-11-14T07:38:45.659Z,49.74
2018-11-14T07:41:16.549Z,52.80
2018-11-14T07:43:44.452Z,51.25
2018-11-14T07:46:12.442Z,51.75
2018-11-14T07:48:41.318Z,50.65
2018-11-14T07:51:08.916Z,50.70
2018-11-14T07:53:38.287Z,51.40
2018-11-14T07:56:05.884Z,52.78
2018-11-14T07:58:33.371Z,52.16
2018-11-14T08:01:01.899Z,51.65
2018-11-14T08:03:30.368Z,51.64
2018-11-14T08:05:58.072Z,52.87
2018-11-14T08:08:25.656Z,51.86
2018-11-14T08:10:53.309Z,51.61
2018-11-14T08:13:27.465Z,52.79
2018-11-14T08:15:56.659Z,53.28
2018-11-14T08:18:24.462Z,53.36
2018-11-14T08:20:51.932Z,53.54
2018-11-14T08:23:19.475Z,53.68
2018-11-14T08:25:48.046Z,54.02
2018-11-14T08:28:16.284Z,53.17
2018-11-14T08:30:44.463Z,54.88
2018-11-14T08:33:11.899Z,54.08
2018-11-14T08:35:39.470Z,54.16
2018-11-14T08:38:09.883Z,54.39
2018-11-14T08:40:37.444Z,55.13
2018-11-14T08:43:05.521Z,54.90
2018-11-14T08:45:33.049Z,55.04
2018-11-14T08:48:00.501Z,54.91
2018-11-14T08:50:29.137Z,54.70
2018-11-14T08:52:56.745Z,54.96
2018-11-14T08:55:25.389Z,53.85
2018-11-14T08:57:52.876Z,55.19
2018-11-14T09:00:25.229Z,53.30
2018-11-14T09:02:55.699Z,54.07
2018-11-14T09:05:25.345Z,53.51
2018-11-14T09:07:53.013Z,53.27
2018-11-14T09:10:21.851Z,53.62
2018-11-14T09:12:49.639Z,55.34
2018-11-14T09:15:21.227Z,55.37
2018-11-14T09:17:48.875Z,53.98
2018-11-14T09:20:17.838Z,54.20
2018-11-14T09:22:45.578Z,54.46
2018-11-14T09:25:14.804Z,54.25
2018-11-14T09:27:44.185Z,52.56
2018-11-14T09:30:15.147Z,53.19
2018-11-14T09:32:42.648Z,53.17
2018-11-14T09:35:11.875Z,54.46
2018-11-14T09:37:39.878Z,54.37
2018-11-14T09:40:11.317Z,53.34
2018-11-14T09:42:39.053Z,53.21
2018-11-14T09:45:10.303Z,51.99
2018-11-14T09:47:37.882Z,51.49
2018-11-14T09:50:08.994Z,50.87
2018-11-14T09:52:37.030Z,52.80
2018-11-14T09:55:05.950Z,51.04
2018-11-14T09:57:34.541Z,49.91
2018-11-14T10:00:02.101Z,49.75
2018-11-14T10:02:30.485Z,49.96
2018-11-14T10:04:57.981Z,50.52
2018-11-14T10:07:26.320Z,51.18
2018-11-14T10:09:53.773Z,51.05
2018-11-14T10:12:21.429Z,50.12
2018-11-14T10:14:50.665Z,48.99
2018-11-14T10:17:18.310Z,48.71
2018-11-14T10:19:46.272Z,49.23
2018-11-14T10:22:14.147Z,48.75
2018-11-14T10:24:41.852Z,50.04
2018-11-14T10:27:09.865Z,49.97
2018-11-14T10:29:37.417Z,52.52
2018-11-14T10:32:05.455Z,50.37
2018-11-14T10:34:32.976Z,48.72
2018-11-14T10:37:03.891Z,47.15
2018-11-14T10:39:33.705Z,46.43
2018-11-14T10:42:01.358Z,46.47
2018-11-14T10:44:30.298Z,48.28
2018-11-14T10:46:59.604Z,47.11
2018-11-14T10:49:29.022Z,48.39
2018-11-14T10:51:57.559Z,48.32
2018-11-14T10:54:25.341Z,46.98
2018-11-14T10:56:53.402Z,45.25
2018-11-14T10:59:22.642Z,44.91
2018-11-14T11:01:55.793Z,42.98
2018-11-14T11:04:30.372Z,42.75
2018-11-14T11:07:03.970Z,43.25
2018-11-14T11:09:42.271Z,43.84
2018-11-14T11:12:15.457Z,46.34
2018-11-14T11:14:49.671Z,45.76
2018-11-14T11:17:21.747Z,45.48
2018-11-14T11:19:59.245Z,45.61
2018-11-14T11:22:34.451Z,46.04
2018-11-14T11:25:10.985Z,46.91
2018-11-14T11:27:48.332Z,46.64
2018-11-14T11:30:24.777Z,45.64
2018-11-14T11:32:58.298Z,46.30
2018-11-14T11:38:06.705Z,45.98
2018-11-14T11:40:41.081Z,45.96
2018-11-14T11:43:10.840Z,46.85
2018-11-14T11:45:40.581Z,47.38
2018-11-14T11:48:08.711Z,45.71
2018-11-14T11:50:41.254Z,46.00
2018-11-14T11:53:15.480Z,44.91
2018-11-14T11:55:43.979Z,46.58
2018-11-14T11:58:13.435Z,47.98
2018-11-14T12:00:41.936Z,45.37
2018-11-14T12:03:09.428Z,44.05
2018-11-14T12:05:37.249Z,43.14
2018-11-14T12:08:11.120Z,41.98
2018-11-14T12:10:39.258Z,41.12
2018-11-14T12:13:06.947Z,40.15
2018-11-14T12:15:34.536Z,39.60
2018-11-14T12:18:03.423Z,38.95
2018-11-14T12:20:33.338Z,38.72
2018-11-14T12:23:01.430Z,39.00
2018-11-14T12:25:29.206Z,39.98
2018-11-14T12:27:56.846Z,38.00
2018-11-14T12:30:24.627Z,36.81
2018-11-14T12:32:53.097Z,36.97
2018-11-14T12:35:21.524Z,38.26
2018-11-14T12:37:49.898Z,37.58
2018-11-14T12:40:17.868Z,37.72
2018-11-14T12:42:45.521Z,37.51
2018-11-14T12:45:15.667Z,38.31
2018-11-14T12:47:43.869Z,38.92
2018-11-14T12:50:12.554Z,39.13
2018-11-14T12:52:40.430Z,38.26
2018-11-14T12:55:11.559Z,38.45
2018-11-14T12:57:39.691Z,40.41
2018-11-14T13:00:09.544Z,40.93
2018-11-14T13:02:38.033Z,40.57
2018-11-14T13:05:06.597Z,41.41
2018-11-14T13:07:34.158Z,42.39
2018-11-14T13:10:02.172Z,41.60
2018-11-14T13:12:30.639Z,42.29
2018-11-14T13:14:58.124Z,41.70
2018-11-14T13:17:27.499Z,41.77
2018-11-14T13:19:55.530Z,41.46
2018-11-14T13:22:24.264Z,42.49
2018-11-14T13:24:52.694Z,43.46
2018-11-14T13:27:20.517Z,42.66
2018-11-14T13:29:48.496Z,41.56
2018-11-14T13:32:16.269Z,41.19
2018-11-14T13:34:44.546Z,40.98
2018-11-14T13:37:12.762Z,41.19
2018-11-14T13:39:40.488Z,40.54
2018-11-14T13:42:08.369Z,40.45
2018-11-14T13:44:35.960Z,41.24
2018-11-14T13:47:05.104Z,41.37
2018-11-14T13:49:33.193Z,40.98
2018-11-14T13:52:00.497Z,41.30
2018-11-14T13:54:28.519Z,41.86
2018-11-14T13:56:56.255Z,41.36
2018-11-14T13:59:24.343Z,42.10
2018-11-14T14:01:52.553Z,42.63
2018-11-14T14:04:21.791Z,42.55
2018-11-14T14:06:49.308Z,45.25
2018-11-14T14:09:17.117Z,44.85
2018-11-14T14:11:45.149Z,44.60
2018-11-14T14:14:14.675Z,43.98
2018-11-14T14:16:43.256Z,43.42
2018-11-14T14:19:11.052Z,44.27
2018-11-14T14:21:39.053Z,43.49
2018-11-14T14:24:07.800Z,43.90
2018-11-14T14:26:36.842Z,44.01
2018-11-14T14:29:04.677Z,43.31
2018-11-14T14:31:32.475Z,43.28
2018-11-14T14:34:00.149Z,43.24
2018-11-14T14:36:28.344Z,43.49
2018-11-14T14:38:57.939Z,43.07
2018-11-14T14:41:25.582Z,43.90
2018-11-14T14:43:53.224Z,44.21
2018-11-14T14:46:20.868Z,43.40
2018-11-14T14:48:49.451Z,43.90
2018-11-14T14:51:17.439Z,43.23
2018-11-14T14:53:45.173Z,43.53
2018-11-14T14:56:13.100Z,43.27
2018-11-14T15:12:11.654Z,43.13
2018-11-14T15:14:39.395Z,43.03
2018-11-14T15:17:06.958Z,42.58
2018-11-14T15:19:36.221Z,42.61
2018-11-14T15:22:04.595Z,42.22
2018-11-14T15:24:32.695Z,42.58
2018-11-14T15:27:00.408Z,42.70
2018-11-14T15:29:27.980Z,41.69
2018-11-14T15:31:55.638Z,42.76
2018-11-14T15:37:30.307Z,43.26
2018-11-14T15:39:57.962Z,43.69
2018-11-14T15:42:25.489Z,43.23
2018-11-14T15:44:54.276Z,43.79
2018-11-14T15:47:21.973Z,43.01
2018-11-14T15:49:49.577Z,44.07
2018-11-14T15:52:17.157Z,43.86
2018-11-14T15:54:45.835Z,44.73
2018-11-14T15:57:14.468Z,45.27
2018-11-14T15:59:42.114Z,44.41
2018-11-14T16:02:09.912Z,45.25
2018-11-14T16:04:37.558Z,45.20
2018-11-14T16:07:05.389Z,44.69
2018-11-14T16:09:35.053Z,45.22
2018-11-14T16:12:02.792Z,44.94
2018-11-14T16:14:32.128Z,44.64
2018-11-14T16:16:59.780Z,43.60
2018-11-14T16:19:27.421Z,43.42
2018-11-14T16:21:56.113Z,43.02
2018-11-14T16:24:23.978Z,42.79
2018-11-14T16:26:51.484Z,42.80
2018-11-14T16:29:20.481Z,42.52
2018-11-14T16:31:49.715Z,42.58
2018-11-14T16:34:18.693Z,42.96
2018-11-14T16:36:46.341Z,43.84
2018-11-14T16:39:14.023Z,45.07
2018-11-14T16:41:41.620Z,45.43
2018-11-14T16:44:09.638Z,45.72
2018-11-14T16:46:39.233Z,45.67
2018-11-14T16:49:06.866Z,45.82
2018-11-14T16:51:35.290Z,46.65
2018-11-14T16:54:02.955Z,45.98
2018-11-14T16:56:30.486Z,44.82
2018-11-14T16:59:01.565Z,45.28
2018-11-14T17:01:29.325Z,45.79
2018-11-14T17:03:56.869Z,45.55
2018-11-14T17:06:24.500Z,47.09
2018-11-14T17:08:52.122Z,47.74
2018-11-14T17:11:20.941Z,48.07
2018-11-14T17:13:48.498Z,48.51
2018-11-14T17:16:18.277Z,47.67
2018-11-14T17:18:45.941Z,48.07
2018-11-14T17:21:13.500Z,46.91
2018-11-14T17:23:42.041Z,46.84
2018-11-14T17:26:09.827Z,46.45
2018-11-14T17:28:37.469Z,46.37
2018-11-14T17:31:05.738Z,46.19
2018-11-14T17:33:33.845Z,46.84
2018-11-14T17:36:03.940Z,46.92
2018-11-14T17:38:32.284Z,47.88
2018-11-14T17:41:02.858Z,47.94
2018-11-14T17:43:30.623Z,47.32
2018-11-14T17:47:27.884Z,48.30
2018-11-14T17:49:56.742Z,49.41
2018-11-14T17:52:24.366Z,49.23
2018-11-14T17:54:53.148Z,49.15
2018-11-14T17:57:20.788Z,50.17
2018-11-14T17:59:48.397Z,50.05
2018-11-14T18:02:17.539Z,50.97
2018-11-14T18:04:45.210Z,49.89
2018-11-14T18:07:12.889Z,49.23
2018-11-14T18:09:40.542Z,48.73
2018-11-14T18:12:08.233Z,49.65
2018-11-14T18:14:37.065Z,48.66
2018-11-14T18:17:06.449Z,50.63
2018-11-14T18:19:34.005Z,49.35
2018-11-14T18:22:01.728Z,49.89
2018-11-14T18:24:29.802Z,49.97
2018-11-14T18:26:59.289Z,50.29
2018-11-14T18:29:27.368Z,50.54
2018-11-14T18:31:55.180Z,50.88
2018-11-14T18:34:22.749Z,50.79
2018-11-14T18:36:50.245Z,50.02
2018-11-14T18:39:18.761Z,49.48
2018-11-14T18:41:46.268Z,49.11
2018-11-14T18:44:13.793Z,49.22
2018-11-14T18:46:42.298Z,49.26
2018-11-14T18:49:10.002Z,49.25
2018-11-14T18:51:40.758Z,50.65
2018-11-14T18:54:09.996Z,50.13
2018-11-14T18:56:38.061Z,49.76
2018-11-14T18:59:05.974Z,51.50
2018-11-14T19:01:33.819Z,53.50
2018-11-14T19:04:02.947Z,51.57
2018-11-14T19:06:30.795Z,50.71
2018-11-14T19:08:58.795Z,49.58
2018-11-14T19:11:26.611Z,49.92
2018-11-14T19:13:54.456Z,50.81
2018-11-14T19:16:25.199Z,52.22
2018-11-14T19:18:53.095Z,52.55
2018-11-14T19:21:20.860Z,51.44
2018-11-14T19:23:48.697Z,51.66
2018-11-14T19:26:16.410Z,50.88
2018-11-14T19:28:44.887Z,50.53
2018-11-14T19:31:12.608Z,49.65
2018-11-14T19:33:40.464Z,50.41
2018-11-14T19:36:08.132Z,50.94
2018-11-14T19:38:35.794Z,50.88
2018-11-14T19:41:05.353Z,50.86
2018-11-14T19:45:02.509Z,51.07
2018-11-14T19:47:30.167Z,51.28
2018-11-14T19:49:58.061Z,52.24
2018-11-14T19:52:26.964Z,50.88
2018-11-14T19:54:54.872Z,51.15
2018-11-14T19:57:22.496Z,49.99
2018-11-14T19:59:50.949Z,51.22
2018-11-14T20:02:18.663Z,51.80
2018-11-14T20:04:48.932Z,51.11
2018-11-14T20:07:17.128Z,52.46
2018-11-14T20:09:44.829Z,52.47
2018-11-14T20:12:12.601Z,52.15
2018-11-14T20:14:40.300Z,54.68
2018-11-14T20:17:08.883Z,52.72
2018-11-14T20:19:41.863Z,52.19
2018-11-14T20:22:11.111Z,52.27
2018-11-14T20:24:38.847Z,52.91
2018-11-14T20:27:07.127Z,53.61
2018-11-14T20:29:36.546Z,53.35
2018-11-14T20:32:04.366Z,53.98
2018-11-14T20:34:32.398Z,53.10
2018-11-14T20:37:00.002Z,54.93
2018-11-14T20:39:27.677Z,55.34
2018-11-14T20:41:56.169Z,54.93
2018-11-14T20:44:23.724Z,55.08
2018-11-14T20:46:51.189Z,56.42
2018-11-14T20:49:21.024Z,55.75
2018-11-14T20:51:48.473Z,55.62
2018-11-14T20:54:16.654Z,55.85
2018-11-14T20:56:44.989Z,54.06
2018-11-14T20:59:12.519Z,55.20
2018-11-14T21:01:40.404Z,54.32
2018-11-14T21:04:08.320Z,57.42
2018-11-14T21:06:37.637Z,56.35
2018-11-14T21:09:07.878Z,55.48
2018-11-14T21:11:39.742Z,54.83
2018-11-14T21:14:14.884Z,55.59
2018-11-14T21:16:42.974Z,56.30
2018-11-14T21:19:10.494Z,55.24
2018-11-14T21:21:38.869Z,55.59
2018-11-14T21:24:06.581Z,54.34
2018-11-14T21:26:35.230Z,56.15
2018-11-14T21:29:05.613Z,55.17
2018-11-14T21:31:34.457Z,53.40
2018-11-14T21:34:02.202Z,54.19
2018-11-14T21:36:29.731Z,54.57
2018-11-14T21:38:57.759Z,54.06
2018-11-14T21:41:26.520Z,52.56
2018-11-14T21:43:54.726Z,53.50
2018-11-14T21:46:22.590Z,52.97
2018-11-14T21:48:50.254Z,52.00
2018-11-14T21:51:18.155Z,52.22
2018-11-14T21:53:47.139Z,53.56
2018-11-14T21:56:14.829Z,54.79
2018-11-14T21:58:42.561Z,54.13
2018-11-14T22:01:10.322Z,53.10
2018-11-14T22:03:38.526Z,52.96
2018-11-14T22:06:06.843Z,54.06
2018-11-14T22:08:34.571Z,54.18
2018-11-14T22:11:02.418Z,52.95
2018-11-14T22:13:30.160Z,54.49
2018-11-14T22:15:58.390Z,53.37
2018-11-14T22:18:27.113Z,53.28
2018-11-14T22:20:54.952Z,53.58
2018-11-14T22:23:23.015Z,54.94
2018-11-14T22:25:50.856Z,55.58
2018-11-14T22:28:19.044Z,55.82
2018-11-14T22:30:47.568Z,55.68
2018-11-14T22:33:15.279Z,56.23
2018-11-14T22:35:43.051Z,56.65
2018-11-14T22:38:11.007Z,54.47
2018-11-14T22:40:39.155Z,53.66
2018-11-14T22:43:08.634Z,53.78
2018-11-14T22:45:36.590Z,54.78
2018-11-14T22:48:05.415Z,54.58
2018-11-14T22:50:33.250Z,53.46
2018-11-14T22:53:02.842Z,54.94
2018-11-14T22:55:31.128Z,54.61
2018-11-14T22:57:58.857Z,54.95
2018-11-14T23:00:29.104Z,53.71
2018-11-14T23:02:58.028Z,53.39
2018-11-14T23:05:26.276Z,54.54
2018-11-14T23:07:57.065Z,53.64
2018-11-14T23:10:25.240Z,53.80
2018-11-14T23:12:53.031Z,55.72
2018-11-14T23:15:22.164Z,55.15
2018-11-14T23:17:50.370Z,56.57
2018-11-14T23:20:18.553Z,54.96
2018-11-14T23:22:47.160Z,56.10
2018-11-14T23:25:15.571Z,55.29
2018-11-14T23:27:44.346Z,54.98
2018-11-14T23:30:13.258Z,53.96
2018-11-14T23:32:42.764Z,53.16
2018-11-14T23:35:16.065Z,54.00
2018-11-14T23:37:44.857Z,54.34
2018-11-14T23:40:12.354Z,55.12
2018-11-14T23:42:40.305Z,55.07
2018-11-14T23:45:12.146Z,55.75
2018-11-14T23:47:39.886Z,56.24
2018-11-14T23:50:10.971Z,55.50
2018-11-14T23:52:38.445Z,55.32
2018-11-14T23:55:06.842Z,55.83
2018-11-14T23:57:34.435Z,54.72
